Time;durP1;ratioP1;P1;durP2;ratioP2;P2;SDS_P1;SDS_P2;PMS_P1;PMS_P2;Temp;Humidity;BMP_temperature;BMP_pressure;BME280_temperature;BME280_humidity;BME280_pressure;Samples;Min_cycle;Max_cycle;Signal;HPM_P1;HPM_P2
2022/01/22 00:00:25;;;;;;;6.13;4.70;;;-0.60;99.90;;;;;;5012938;28;20026;-54
2022/01/22 00:02:51;;;;;;;7.25;5.20;;;-0.60;99.90;;;;;;5013472;28;20389;-51
2022/01/22 00:05:20;;;;;;;9.02;4.80;;;-0.50;99.90;;;;;;5012617;28;20107;-51
2022/01/22 00:07:46;;;;;;;6.60;5.05;;;-0.50;99.90;;;;;;5012800;28;20057;-51
2022/01/22 00:10:18;;;;;;;10.57;5.30;;;-0.60;99.90;;;;;;5012631;28;20022;-53
2022/01/22 00:15:28;;;;;;;8.45;4.80;;;-0.60;99.90;;;;;;5032276;28;20092;-51
2022/01/22 00:17:55;;;;;;;7.72;4.63;;;-0.60;99.90;;;;;;5031998;28;20334;-50
2022/01/22 00:20:24;;;;;;;5.95;4.82;;;-0.60;99.90;;;;;;5030898;28;20021;-53
2022/01/22 00:22:50;;;;;;;7.55;4.07;;;-0.60;99.90;;;;;;5016238;28;20048;-52
2022/01/22 00:25:17;;;;;;;5.28;4.78;;;-0.60;99.90;;;;;;5012346;28;20064;-54
2022/01/22 00:27:45;;;;;;;9.23;4.40;;;-0.60;99.90;;;;;;5012215;28;20479;-50
2022/01/22 00:30:15;;;;;;;9.90;4.82;;;-0.50;99.90;;;;;;5012148;28;20551;-55
2022/01/22 00:32:40;;;;;;;6.78;4.88;;;-0.60;99.90;;;;;;5024293;28;20538;-54
2022/01/22 00:35:07;;;;;;;7.45;5.30;;;-0.60;99.90;;;;;;5030139;28;20030;-53
2022/01/22 00:37:34;;;;;;;6.60;4.45;;;-0.60;99.90;;;;;;5032078;28;20389;-53
2022/01/22 00:40:00;;;;;;;4.63;4.07;;;-0.50;99.90;;;;;;5030914;28;20112;-53
2022/01/22 00:42:25;;;;;;;7.78;4.60;;;-0.50;99.90;;;;;;5018404;28;20115;-50
2022/01/22 00:44:51;;;;;;;4.68;4.13;;;-0.60;99.90;;;;;;5011783;28;20053;-51
2022/01/22 00:47:18;;;;;;;5.25;4.53;;;-0.50;99.90;;;;;;5012091;28;20022;-54
2022/01/22 00:49:51;;;;;;;5.72;3.63;;;-0.50;99.90;;;;;;5011630;28;20029;-52
2022/01/22 00:52:17;;;;;;;4.80;4.40;;;-0.50;99.90;;;;;;5022068;28;20021;-52
2022/01/22 00:54:43;;;;;;;8.18;4.30;;;-0.50;99.90;;;;;;5031528;28;20104;-50
2022/01/22 00:57:08;;;;;;;11.27;4.72;;;-0.50;99.90;;;;;;5031476;28;20476;-52
2022/01/22 00:59:34;;;;;;;6.18;3.97;;;-0.50;99.90;;;;;;5031591;28;20469;-54
2022/01/22 01:02:00;;;;;;;16.95;4.43;;;-0.40;99.90;;;;;;5022960;28;20109;-51
2022/01/22 01:04:28;;;;;;;10.77;5.75;;;-0.50;99.90;;;;;;5011680;28;20450;-52
2022/01/22 01:06:54;;;;;;;7.13;5.28;;;-0.60;99.90;;;;;;5011369;28;20370;-49
2022/01/22 01:09:20;;;;;;;4.43;3.85;;;-0.50;99.90;;;;;;5011543;28;20026;-50
2022/01/22 01:11:53;;;;;;;10.15;4.95;;;-0.40;99.90;;;;;;5016542;28;20029;-51
2022/01/22 01:14:27;;;;;;;6.20;3.80;;;-0.50;99.90;;;;;;5031050;28;20020;-52
2022/01/22 01:33:20;;;;;;;6.50;4.60;;;-0.50;99.90;;;;;;5011202;28;20210;-53
2022/01/22 01:35:46;;;;;;;7.38;3.92;;;-0.60;99.90;;;;;;5011335;28;20109;-50
2022/01/22 01:38:12;;;;;;;11.57;5.82;;;-0.60;99.90;;;;;;5011109;28;20116;-51
2022/01/22 01:40:41;;;;;;;6.05;3.38;;;-0.60;99.90;;;;;;5011600;28;20120;-52
2022/01/22 01:43:23;;;;;;;8.18;4.15;;;-0.60;99.90;;;;;;5031191;28;20022;-50
2022/01/22 01:45:48;;;;;;;7.00;3.95;;;-0.60;99.90;;;;;;5030470;28;20026;-51
2022/01/22 01:48:19;;;;;;;6.20;4.40;;;-0.60;99.90;;;;;;5030640;28;20484;-52
2022/01/22 01:50:45;;;;;;;5.07;3.75;;;-0.60;99.90;;;;;;5026012;28;20473;-52
2022/01/22 01:56:05;;;;;;;15.20;6.80;;;-0.70;99.90;;;;;;5010999;28;20032;-49
2022/01/22 01:58:31;;;;;;;11.80;4.47;;;-0.70;99.90;;;;;;5011027;28;20117;-49
2022/01/22 02:01:01;;;;;;;4.53;3.58;;;-0.80;99.90;;;;;;5014746;28;20053;-50
2022/01/22 02:03:27;;;;;;;26.17;7.15;;;-0.70;99.90;;;;;;5030220;28;20517;-51
2022/01/22 02:05:53;;;;;;;4.38;3.92;;;-0.70;99.90;;;;;;5030109;28;20029;-51
2022/01/22 02:08:20;;;;;;;6.88;4.38;;;-0.80;99.90;;;;;;5030471;28;20026;-50
2022/01/22 02:10:55;;;;;;;28.55;8.57;;;-0.80;99.90;;;;;;5027212;28;20028;-51
2022/01/22 02:24:06;;;;;;;19.60;6.55;;;-0.80;99.90;;;;;;5030418;28;20453;-53
2022/01/22 02:26:32;;;;;;;10.77;4.82;;;-0.80;99.90;;;;;;5030209;28;20025;-52
2022/01/22 02:28:57;;;;;;;5.93;3.80;;;-0.70;99.90;;;;;;5029902;28;20036;-52
2022/01/22 02:31:34;;;;;;;5.85;3.40;;;-0.60;99.90;;;;;;5022800;28;20462;-53
2022/01/22 02:37:04;;;;;;;5.38;3.92;;;-0.60;99.90;;;;;;5010360;28;20072;-52
2022/01/22 02:39:43;;;;;;;15.77;5.38;;;-0.60;99.90;;;;;;5010278;28;20485;-52
2022/01/22 02:42:09;;;;;;;5.55;3.20;;;-0.70;99.90;;;;;;5021956;28;20467;-52
2022/01/22 02:44:42;;;;;;;5.57;3.55;;;-0.60;99.90;;;;;;5030047;28;20109;-52
2022/01/22 02:47:08;;;;;;;10.88;4.35;;;-0.70;99.90;;;;;;5030145;28;20363;-53
2022/01/22 02:49:35;;;;;;;8.25;4.47;;;-0.70;99.90;;;;;;5029923;28;20053;-52
2022/01/22 02:52:05;;;;;;;4.95;3.80;;;-0.70;99.90;;;;;;5017591;28;20572;-54
2022/01/22 02:54:31;;;;;;;17.67;6.90;;;-0.70;99.90;;;;;;5009090;28;20034;-51
2022/01/22 02:56:57;;;;;;;38.65;9.65;;;-0.70;99.90;;;;;;5009924;28;20040;-53
2022/01/22 02:59:23;;;;;;;12.13;4.88;;;-0.60;99.90;;;;;;5010387;28;20073;-51
2022/01/22 03:01:50;;;;;;;19.77;9.45;;;-0.70;99.90;;;;;;5018480;28;20056;-53
2022/01/22 03:04:16;;;;;;;6.57;3.90;;;-0.70;99.90;;;;;;5031517;28;20013;-50
2022/01/22 03:06:42;;;;;;;27.95;8.55;;;-0.70;99.90;;;;;;5033475;28;20024;-52
2022/01/22 03:09:11;;;;;;;13.32;6.10;;;-0.70;99.90;;;;;;5033588;28;20029;-50
2022/01/22 03:11:46;;;;;;;17.75;5.25;;;-0.70;99.90;;;;;;5025106;28;20101;-51
2022/01/22 03:19:16;;;;;;;7.25;4.55;;;-0.70;99.90;;;;;;5014707;28;20044;-51
2022/01/22 03:21:55;;;;;;;5.47;4.57;;;-0.60;99.90;;;;;;5013511;28;20053;-49
2022/01/22 03:27:21;;;;;;;7.30;3.80;;;-0.60;99.90;;;;;;5019779;28;20030;-52
2022/01/22 03:29:47;;;;;;;3.63;3.30;;;-0.60;99.90;;;;;;5032990;28;20498;-50
2022/01/22 03:32:13;;;;;;;3.70;3.30;;;-0.60;99.90;;;;;;5033276;28;20024;-51
2022/01/22 03:34:44;;;;;;;4.55;4.15;;;-0.60;99.90;;;;;;5032887;28;20025;-51
2022/01/22 03:37:10;;;;;;;8.15;3.65;;;-0.70;99.90;;;;;;5032995;28;20112;-49
2022/01/22 03:39:36;;;;;;;4.55;4.15;;;-0.70;99.90;;;;;;5013341;28;20040;-52
2022/01/22 03:42:02;;;;;;;4.00;3.70;;;-0.70;99.90;;;;;;5013043;28;20219;-52
2022/01/22 03:44:28;;;;;;;4.68;3.72;;;-0.60;99.90;;;;;;5013146;28;20033;-50
2022/01/22 03:46:53;;;;;;;4.45;3.85;;;-0.60;99.90;;;;;;5012927;28;20022;-51
2022/01/22 03:49:19;;;;;;;7.55;4.15;;;-0.60;99.90;;;;;;5029869;28;20424;-49
2022/01/22 03:51:45;;;;;;;8.40;3.50;;;-0.60;99.90;;;;;;5032494;28;20030;-52
2022/01/22 03:54:10;;;;;;;4.15;3.78;;;-0.60;99.90;;;;;;5031254;28;20095;-51
2022/01/22 03:56:38;;;;;;;3.75;3.47;;;-0.50;99.90;;;;;;5032742;28;20108;-50
2022/01/22 03:59:04;;;;;;;4.45;3.30;;;-0.60;99.90;;;;;;5017631;28;20045;-53
2022/01/22 04:04:20;;;;;;;5.35;2.85;;;-0.60;99.90;;;;;;5012910;28;20091;-51
2022/01/22 04:09:14;;;;;;;4.03;3.72;;;-0.50;99.90;;;;;;5027873;28;20036;-51
2022/01/22 04:11:43;;;;;;;3.78;3.03;;;-0.50;99.90;;;;;;5032421;28;20551;-50
2022/01/22 04:14:18;;;;;;;4.50;2.83;;;-0.50;99.90;;;;;;5032313;28;20036;-51
2022/01/22 04:16:58;;;;;;;4.60;3.47;;;-0.50;99.90;;;;;;5032310;28;20028;-53
2022/01/22 04:24:55;;;;;;;2.90;2.70;;;-0.40;99.90;;;;;;5012558;28;20065;-52
2022/01/22 04:27:26;;;;;;;6.43;3.03;;;-0.40;99.90;;;;;;5012411;28;20018;-51
2022/01/22 04:29:57;;;;;;;3.67;3.30;;;-0.50;99.90;;;;;;5012124;28;20112;-53
2022/01/22 04:32:23;;;;;;;3.03;2.70;;;-0.50;99.90;;;;;;5012433;28;20025;-51
2022/01/22 04:34:49;;;;;;;4.07;2.70;;;-0.50;99.90;;;;;;5012011;28;20113;-53
2022/01/22 04:37:18;;;;;;;3.97;3.30;;;-0.50;99.90;;;;;;5012049;28;20093;-54
2022/01/22 04:39:47;;;;;;;3.30;3.10;;;-0.50;99.90;;;;;;5030834;28;20171;-51
2022/01/22 04:42:13;;;;;;;3.75;3.40;;;-0.50;99.90;;;;;;5030561;28;20033;-54
2022/01/22 04:44:50;;;;;;;5.85;3.15;;;-0.50;99.90;;;;;;5031901;28;20030;-50
2022/01/22 04:55:34;;;;;;;3.40;3.10;;;-0.50;99.90;;;;;;5011934;28;20041;-51
2022/01/22 04:58:03;;;;;;;24.23;13.13;;;-0.50;99.90;;;;;;5015900;28;20068;-52
2022/01/22 05:00:34;;;;;;;27.38;12.88;;;-0.50;99.90;;;;;;5031613;28;20392;-50
2022/01/22 05:03:00;;;;;;;7.45;5.30;;;-0.50;99.90;;;;;;5031262;28;20033;-53
2022/01/22 05:05:27;;;;;;;66.80;31.58;;;-0.50;99.90;;;;;;5031279;28;20064;-53
2022/01/22 05:07:53;;;;;;;4.30;3.88;;;-0.50;99.90;;;;;;5015941;28;20029;-53
2022/01/22 05:10:19;;;;;;;21.90;9.48;;;-0.40;99.90;;;;;;5011599;28;20026;-50
2022/01/22 05:12:45;;;;;;;4.65;4.20;;;-0.40;99.90;;;;;;5010088;28;20440;-54
2022/01/22 05:15:11;;;;;;;3.60;3.20;;;-0.40;99.90;;;;;;5011230;28;20053;-53
2022/01/22 05:17:40;;;;;;;28.55;12.50;;;-0.40;99.90;;;;;;5023740;28;20099;-52
2022/01/22 05:20:33;;;;;;;35.10;16.60;;;-0.40;99.90;;;;;;5031078;28;20053;-50
2022/01/22 05:25:30;;;;;;;3.13;2.92;;;-0.40;99.90;;;;;;5031136;28;20063;-54
2022/01/22 05:38:30;;;;;;;3.70;3.50;;;-0.30;99.90;;;;;;5030392;28;20037;-51
2022/01/22 05:40:56;;;;;;;4.18;3.63;;;-0.30;99.90;;;;;;5030481;28;20025;-52
2022/01/22 05:43:21;;;;;;;3.50;3.20;;;-0.40;99.90;;;;;;5030843;28;20029;-51
2022/01/22 05:45:47;;;;;;;4.75;3.78;;;-0.30;99.90;;;;;;5030368;28;20038;-51
2022/01/22 05:48:13;;;;;;;3.70;3.35;;;-0.30;99.90;;;;;;5013687;28;20030;-53
2022/01/22 06:01:08;;;;;;;5.97;3.33;;;-0.30;99.90;;;;;;5030703;28;20060;-52
2022/01/22 06:03:34;;;;;;;4.32;3.92;;;-0.30;99.90;;;;;;5029194;28;20087;-52
2022/01/22 06:06:00;;;;;;;4.43;3.33;;;-0.30;99.90;;;;;;5018075;28;20034;-53
2022/01/22 06:08:33;;;;;;;3.40;3.20;;;-0.30;99.90;;;;;;5010800;28;20073;-53
2022/01/22 06:11:06;;;;;;;3.90;3.57;;;-0.30;99.90;;;;;;5010403;28;20041;-51
2022/01/22 06:13:43;;;;;;;;;;;-0.20;99.90;;;;;;5011162;28;20025;-52
2022/01/22 06:16:35;;;;;;;4.32;3.95;;;-0.20;99.90;;;;;;5023027;28;19917;-50
2022/01/22 06:19:01;;;;;;;4.43;4.00;;;-0.20;99.90;;;;;;5028061;28;20122;-52
2022/01/22 06:21:27;;;;;;;5.65;5.25;;;-0.20;99.90;;;;;;5030275;28;20064;-54
2022/01/22 06:23:52;;;;;;;4.07;3.67;;;-0.20;99.90;;;;;;5030159;28;20022;-54
2022/01/22 06:26:19;;;;;;;4.90;4.50;;;-0.10;99.90;;;;;;5013353;28;20034;-52
2022/01/22 06:28:45;;;;;;;4.10;3.78;;;-0.10;99.90;;;;;;5010556;28;20385;-54
2022/01/22 06:31:11;;;;;;;4.80;4.18;;;0.00;99.90;;;;;;5010461;28;20376;-50
2022/01/22 06:33:37;;;;;;;4.20;3.90;;;0.00;99.90;;;;;;5010448;28;20026;-51
2022/01/22 06:36:03;;;;;;;5.90;5.05;;;0.00;99.90;;;;;;5024334;28;20060;-51
2022/01/22 06:38:29;;;;;;;5.25;4.28;;;-0.10;99.90;;;;;;5030711;28;20048;-51
2022/01/22 06:43:39;;;;;;;4.72;4.15;;;0.00;99.90;;;;;;5033909;28;20099;-52
2022/01/22 06:46:04;;;;;;;6.18;3.70;;;0.00;99.90;;;;;;5019351;28;20061;-52
2022/01/22 06:48:30;;;;;;;3.97;3.67;;;0.00;99.90;;;;;;5014029;28;20034;-50
2022/01/22 06:50:57;;;;;;;4.13;3.83;;;0.00;99.90;;;;;;5013903;28;20099;-52
2022/01/22 06:53:23;;;;;;;4.93;4.53;;;0.10;99.90;;;;;;5014303;28;20022;-51
2022/01/22 06:55:57;;;;;;;4.15;3.85;;;0.00;99.90;;;;;;5026604;28;20083;-51
2022/01/22 06:58:22;;;;;;;4.65;3.95;;;0.00;99.90;;;;;;5033812;28;20041;-50
2022/01/22 07:00:48;;;;;;;4.63;4.32;;;0.00;99.90;;;;;;5032044;28;20068;-51
2022/01/22 07:03:14;;;;;;;4.20;3.90;;;0.00;99.90;;;;;;5034084;28;20017;-51
2022/01/22 07:05:39;;;;;;;4.63;4.22;;;0.00;99.90;;;;;;5020417;28;20038;-51
2022/01/22 07:08:05;;;;;;;3.95;3.60;;;0.00;99.90;;;;;;5014407;28;20484;-55
2022/01/22 07:10:31;;;;;;;4.72;4.32;;;0.00;99.90;;;;;;5013739;28;20029;-58
2022/01/22 07:12:57;;;;;;;4.72;4.15;;;0.00;99.90;;;;;;5013631;28;20520;-52
2022/01/22 07:15:22;;;;;;;4.50;4.15;;;0.00;99.90;;;;;;5014774;28;20054;-51
2022/01/22 07:17:49;;;;;;;5.65;4.65;;;0.00;99.90;;;;;;5013286;28;20076;-52
2022/01/22 07:20:18;;;;;;;4.93;4.07;;;0.10;99.90;;;;;;5014830;28;20022;-50
2022/01/22 07:22:51;;;;;;;4.72;4.32;;;0.10;99.90;;;;;;5029695;28;20029;-51
2022/01/22 07:25:17;;;;;;;5.30;4.90;;;0.00;99.90;;;;;;5034428;28;20029;-50
2022/01/22 07:27:44;;;;;;;3.97;3.67;;;0.10;99.90;;;;;;5034306;28;20022;-53
2022/01/22 07:30:10;;;;;;;4.32;3.92;;;0.10;99.90;;;;;;5034279;28;20021;-53
2022/01/22 07:32:41;;;;;;;4.53;4.18;;;0.10;99.90;;;;;;5019824;28;20030;-54
2022/01/22 07:35:07;;;;;;;4.68;4.28;;;0.20;99.90;;;;;;5014536;28;20120;-50
2022/01/22 07:37:32;;;;;;;4.72;4.32;;;0.20;99.90;;;;;;5014534;28;20034;-54
2022/01/22 07:39:58;;;;;;;4.43;4.03;;;0.30;99.90;;;;;;5014328;28;20034;-55
2022/01/22 07:42:24;;;;;;;4.90;4.40;;;0.20;99.90;;;;;;5026617;28;20112;-54
2022/01/22 07:44:49;;;;;;;3.95;3.55;;;0.30;99.90;;;;;;5033811;28;20036;-54
2022/01/22 07:47:15;;;;;;;4.60;4.20;;;0.30;99.90;;;;;;5033974;28;20021;-52
2022/01/22 07:49:41;;;;;;;3.90;3.60;;;0.30;99.90;;;;;;5033426;28;20022;-56
2022/01/22 07:52:07;;;;;;;4.60;4.20;;;0.30;99.90;;;;;;5024134;28;20072;-51
2022/01/22 07:54:33;;;;;;;7.18;4.15;;;0.40;99.90;;;;;;5014381;28;20018;-53
2022/01/22 07:56:59;;;;;;;6.13;4.30;;;0.40;99.90;;;;;;5013903;28;20026;-55
2022/01/22 07:59:25;;;;;;;5.25;4.63;;;0.30;99.90;;;;;;5014189;28;20088;-51
2022/01/22 08:01:51;;;;;;;4.03;3.72;;;0.40;99.90;;;;;;5014869;28;20030;-50
2022/01/22 08:04:23;;;;;;;5.45;4.20;;;0.50;99.90;;;;;;5014051;28;20057;-52
2022/01/22 08:06:49;;;;;;;4.50;4.07;;;0.50;99.90;;;;;;5013759;28;20105;-54
2022/01/22 08:09:15;;;;;;;4.50;4.20;;;0.60;99.90;;;;;;5013865;28;20516;-54
2022/01/22 08:11:40;;;;;;;3.70;3.40;;;0.50;99.90;;;;;;5028470;28;20029;-52
2022/01/22 08:14:09;;;;;;;4.32;3.92;;;0.60;99.90;;;;;;5032043;28;20068;-52
2022/01/22 08:16:35;;;;;;;4.13;3.83;;;0.60;99.90;;;;;;5029940;28;20037;-52
2022/01/22 08:19:00;;;;;;;3.70;3.10;;;0.60;99.90;;;;;;5013510;28;20415;-52
2022/01/22 08:21:26;;;;;;;5.07;4.60;;;0.60;99.90;;;;;;5013847;28;20038;-54
2022/01/22 08:23:52;;;;;;;4.75;3.80;;;0.60;99.90;;;;;;5013551;28;20393;-52
2022/01/22 08:26:22;;;;;;;3.75;3.55;;;0.60;99.90;;;;;;5013365;28;20036;-53
2022/01/22 08:28:53;;;;;;;4.15;3.75;;;0.70;99.90;;;;;;5032707;28;20036;-52
2022/01/22 08:31:37;;;;;;;4.32;3.92;;;0.70;99.90;;;;;;5033239;28;20108;-52
2022/01/22 08:36:49;;;;;;;9.25;5.93;;;0.70;99.90;;;;;;5028866;28;20044;-52
2022/01/22 08:39:17;;;;;;;4.78;3.75;;;0.70;99.90;;;;;;5013336;28;20030;-50
2022/01/22 08:41:43;;;;;;;6.50;4.63;;;0.90;99.90;;;;;;5013348;28;20113;-50
2022/01/22 08:44:10;;;;;;;4.78;3.92;;;0.90;99.90;;;;;;5013046;28;20022;-51
2022/01/22 08:46:37;;;;;;;5.57;4.97;;;0.90;99.90;;;;;;5015034;28;20033;-52
2022/01/22 08:49:04;;;;;;;4.47;4.10;;;1.00;99.90;;;;;;5031485;28;20044;-52
2022/01/22 08:51:32;;;;;;;4.80;4.40;;;1.00;99.90;;;;;;5032897;28;20034;-53
2022/01/22 08:54:00;;;;;;;5.05;3.75;;;1.00;99.90;;;;;;5032797;28;20021;-50
2022/01/22 08:56:26;;;;;;;4.70;4.30;;;1.10;99.90;;;;;;5030657;28;20040;-50
2022/01/22 08:58:52;;;;;;;4.72;4.07;;;1.10;99.90;;;;;;5016799;28;20098;-50
2022/01/22 09:01:17;;;;;;;4.50;4.10;;;1.10;99.90;;;;;;5031888;28;20029;-50
2022/01/22 09:03:43;;;;;;;8.57;4.22;;;1.10;99.90;;;;;;5031749;28;20029;-51
2022/01/22 09:06:11;;;;;;;3.85;3.53;;;1.20;99.90;;;;;;5023896;28;20033;-55
2022/01/22 09:08:37;;;;;;;4.10;3.72;;;1.20;99.90;;;;;;5032277;28;20595;-54
2022/01/22 09:11:03;;;;;;;5.60;3.53;;;1.30;99.90;;;;;;5020710;28;20034;-54
2022/01/22 09:13:29;;;;;;;4.15;3.72;;;1.20;99.90;;;;;;5029313;28;20426;-51
2022/01/22 09:15:55;;;;;;;4.47;4.00;;;1.20;99.90;;;;;;5027325;28;20125;-50
2022/01/22 09:18:21;;;;;;;4.32;4.03;;;1.20;99.90;;;;;;5012616;28;20109;-51
2022/01/22 09:23:17;;;;;;;4.82;4.20;;;1.20;99.90;;;;;;5012368;28;20036;-53
2022/01/22 09:25:46;;;;;;;3.85;3.55;;;1.30;99.90;;;;;;5041694;28;20408;-53
2022/01/22 09:28:13;;;;;;;5.82;4.25;;;1.30;99.90;;;;;;5018716;28;20097;-53
2022/01/22 09:30:41;;;;;;;24.08;11.73;;;1.30;99.90;;;;;;5012281;28;20026;-53
2022/01/22 09:33:07;;;;;;;5.43;4.57;;;1.30;99.90;;;;;;5012363;28;20033;-55
2022/01/22 09:35:33;;;;;;;10.48;7.05;;;1.40;99.90;;;;;;5031972;28;20037;-53
2022/01/22 09:37:59;;;;;;;4.38;4.00;;;1.40;99.90;;;;;;5050385;28;20028;-51
2022/01/22 09:40:26;;;;;;;11.00;7.45;;;1.40;99.90;;;;;;5051846;28;20025;-53
2022/01/22 09:42:52;;;;;;;4.40;4.00;;;1.40;99.90;;;;;;5051698;28;20048;-51
2022/01/22 09:45:18;;;;;;;14.52;9.43;;;1.40;99.90;;;;;;5051796;28;20033;-52
2022/01/22 09:47:48;;;;;;;28.63;13.40;;;1.30;99.90;;;;;;5051649;28;20048;-54
2022/01/22 09:50:17;;;;;;;5.63;4.57;;;1.30;99.90;;;;;;5051757;28;20158;-53
2022/01/22 09:52:45;;;;;;;5.47;5.05;;;1.40;99.90;;;;;;5050810;28;20119;-56
2022/01/22 09:55:11;;;;;;;5.90;5.35;;;1.50;99.90;;;;;;5050122;28;20036;-51
2022/01/22 09:57:37;;;;;;;4.40;4.00;;;1.50;99.90;;;;;;5050505;28;20119;-51
2022/01/22 10:00:12;;;;;;;25.20;12.10;;;1.60;99.90;;;;;;5050996;28;20036;-55
2022/01/22 10:02:47;;;;;;;6.30;5.13;;;1.50;99.90;;;;;;5032171;28;20049;-55
2022/01/22 10:05:38;;;;;;;4.60;4.22;;;1.60;99.90;;;;;;5031347;28;20377;-50
2022/01/22 10:08:24;;;;;;;5.13;4.65;;;1.70;99.90;;;;;;5031231;28;20044;-53
2022/01/22 10:10:51;;;;;;;6.00;4.35;;;1.70;99.90;;;;;;5031005;28;20017;-53
2022/01/22 10:13:40;;;;;;;5.65;5.05;;;1.80;99.90;;;;;;5012005;28;20559;-54
2022/01/22 10:16:33;;;;;;;4.90;4.40;;;1.70;99.90;;;;;;5011628;28;20053;-51
2022/01/22 10:19:10;;;;;;;6.32;5.72;;;1.80;99.90;;;;;;5010196;28;20026;-52
2022/01/22 10:21:38;;;;;;;5.78;5.28;;;1.60;99.90;;;;;;5011474;28;20037;-53
2022/01/22 10:24:22;;;;;;;4.70;4.30;;;1.70;99.90;;;;;;5011728;28;20022;-53
2022/01/22 10:27:08;;;;;;;6.22;5.63;;;1.70;99.90;;;;;;5011610;28;20030;-50
2022/01/22 10:29:34;;;;;;;6.50;5.90;;;1.70;99.90;;;;;;5011579;28;20092;-52
2022/01/22 10:32:02;;;;;;;5.97;5.40;;;1.70;99.90;;;;;;5011499;28;20018;-50
2022/01/22 10:34:30;;;;;;;5.60;5.18;;;1.70;99.90;;;;;;5011743;28;20026;-53
2022/01/22 10:36:58;;;;;;;4.53;4.22;;;1.80;99.90;;;;;;5023075;28;20095;-51
2022/01/22 10:39:29;;;;;;;5.40;4.93;;;1.80;99.90;;;;;;5029724;28;20429;-51
2022/01/22 10:41:55;;;;;;;5.15;4.63;;;1.70;99.90;;;;;;5030736;28;20032;-50
2022/01/22 10:44:40;;;;;;;7.72;6.75;;;1.80;99.90;;;;;;5030356;28;20493;-50
2022/01/22 10:47:22;;;;;;;5.15;4.68;;;1.80;99.90;;;;;;5031091;28;20032;-53
2022/01/22 10:49:47;;;;;;;5.00;4.50;;;1.80;99.90;;;;;;5030854;28;20017;-51
2022/01/22 10:52:13;;;;;;;5.35;4.88;;;1.80;99.90;;;;;;5030510;28;20021;-51
2022/01/22 10:54:39;;;;;;;7.15;5.45;;;1.80;99.90;;;;;;5030437;28;20075;-52
2022/01/22 10:57:12;;;;;;;5.28;4.88;;;1.80;99.90;;;;;;5030470;28;20087;-52
2022/01/22 10:59:46;;;;;;;5.10;4.68;;;1.80;99.90;;;;;;5030553;28;20109;-52
2022/01/22 11:02:12;;;;;;;5.75;5.25;;;1.80;99.90;;;;;;5030944;28;20032;-54
2022/01/22 11:04:41;;;;;;;6.53;5.18;;;1.80;99.90;;;;;;5025408;28;20022;-53
2022/01/22 11:07:08;;;;;;;5.85;5.03;;;1.80;99.90;;;;;;5010649;28;20026;-54
2022/01/22 11:09:35;;;;;;;6.47;4.63;;;1.70;99.90;;;;;;5010812;28;20366;-51
2022/01/22 11:12:03;;;;;;;12.10;9.65;;;1.70;99.90;;;;;;5010943;28;20029;-54
2022/01/22 11:14:30;;;;;;;6.07;5.50;;;1.70;99.90;;;;;;5010832;28;20457;-54
2022/01/22 11:16:57;;;;;;;5.78;5.18;;;1.80;99.90;;;;;;5011085;28;20044;-55
2022/01/22 11:19:32;;;;;;;6.18;5.57;;;2.00;99.90;;;;;;5010721;28;20015;-52
2022/01/22 11:22:03;;;;;;;5.43;4.90;;;1.90;99.90;;;;;;5010638;28;20021;-53
2022/01/22 11:24:32;;;;;;;5.75;5.25;;;2.00;99.90;;;;;;5010094;28;20019;-52
2022/01/22 11:26:59;;;;;;;5.18;4.75;;;2.10;99.90;;;;;;5014520;28;20030;-51
2022/01/22 11:29:34;;;;;;;4.82;4.43;;;2.20;99.90;;;;;;5014068;28;20037;-58
2022/01/22 11:32:04;;;;;;;6.20;5.60;;;2.20;99.90;;;;;;5005536;28;20473;-57
2022/01/22 11:34:32;;;;;;;5.95;5.45;;;2.20;99.90;;;;;;5022733;28;20037;-56
2022/01/22 11:37:06;;;;;;;7.38;5.22;;;2.20;99.90;;;;;;5022118;28;20037;-56
2022/01/22 11:39:33;;;;;;;6.93;5.07;;;2.20;99.90;;;;;;5023759;28;20025;-54
2022/01/22 11:41:59;;;;;;;5.57;4.97;;;2.10;99.90;;;;;;5013754;28;20109;-53
2022/01/22 11:44:50;;;;;;;11.50;5.90;;;2.00;99.90;;;;;;5017373;28;20026;-54
2022/01/22 11:47:20;;;;;;;6.82;6.13;;;1.90;99.90;;;;;;5017828;28;20037;-57
2022/01/22 11:50:07;;;;;;;5.88;5.38;;;1.90;99.90;;;;;;5011024;28;20026;-55
2022/01/22 11:52:41;;;;;;;6.47;5.65;;;1.90;99.90;;;;;;5022201;28;20028;-56
2022/01/22 11:55:13;;;;;;;6.55;6.05;;;1.80;99.90;;;;;;5022562;28;20033;-56
2022/01/22 11:57:41;;;;;;;7.95;7.25;;;1.70;99.90;;;;;;5023231;28;20022;-53
2022/01/22 12:00:26;;;;;;;6.38;5.80;;;1.70;99.90;;;;;;5023056;28;20048;-57
2022/01/22 12:03:06;;;;;;;6.57;5.97;;;1.70;99.90;;;;;;5022018;28;20068;-55
2022/01/22 12:05:32;;;;;;;7.95;5.70;;;1.80;99.90;;;;;;5013525;28;20034;-54
2022/01/22 12:08:01;;;;;;;6.00;5.50;;;1.80;99.90;;;;;;5022355;28;20037;-55
2022/01/22 12:10:41;;;;;;;9.23;7.55;;;1.80;99.90;;;;;;5022847;28;20037;-55
2022/01/22 12:16:37;;;;;;;7.43;6.65;;;1.70;99.90;;;;;;5022107;28;20080;-55
2022/01/22 12:19:08;;;;;;;7.25;6.55;;;1.80;99.90;;;;;;5022865;28;20057;-55
2022/01/22 12:21:37;;;;;;;6.85;6.15;;;1.90;99.90;;;;;;5022938;28;20038;-53
2022/01/22 12:24:06;;;;;;;7.10;6.50;;;1.90;99.90;;;;;;5022886;28;20044;-56
2022/01/22 12:26:45;;;;;;;6.97;6.32;;;1.80;99.90;;;;;;5020850;28;20057;-55
2022/01/22 12:29:34;;;;;;;7.22;6.53;;;1.80;99.90;;;;;;5014335;28;20025;-53
2022/01/22 12:32:06;;;;;;;7.47;6.53;;;1.80;99.90;;;;;;5005482;28;20026;-53
2022/01/22 12:34:58;;;;;;;5.95;5.45;;;1.70;99.90;;;;;;5005828;28;20458;-53
2022/01/22 12:37:26;;;;;;;6.07;5.47;;;1.70;99.90;;;;;;5007287;28;20046;-53
2022/01/22 12:39:54;;;;;;;8.10;6.18;;;1.60;99.90;;;;;;5002270;28;20044;-57
2022/01/22 12:42:33;;;;;;;7.90;6.25;;;1.70;99.90;;;;;;5010907;28;20066;-53
2022/01/22 12:45:03;;;;;;;6.75;6.15;;;1.70;99.90;;;;;;5021372;28;20346;-54
2022/01/22 12:47:29;;;;;;;6.63;6.03;;;1.80;99.90;;;;;;5021618;28;20040;-58
2022/01/22 12:50:05;;;;;;;6.75;6.07;;;1.70;99.90;;;;;;5021755;28;20361;-54
2022/01/22 12:52:33;;;;;;;6.65;6.00;;;1.70;99.90;;;;;;5030901;28;20030;-54
2022/01/22 12:54:59;;;;;;;6.78;6.03;;;1.80;99.90;;;;;;5031083;28;20038;-56
2022/01/22 12:57:27;;;;;;;7.28;6.47;;;1.70;99.90;;;;;;5032204;28;20009;-55
2022/01/22 13:00:13;;;;;;;7.00;6.10;;;1.70;99.90;;;;;;5030912;28;20057;-56
2022/01/22 13:02:42;;;;;;;10.93;7.80;;;1.80;99.90;;;;;;5031429;28;20369;-54
2022/01/22 13:05:10;;;;;;;6.63;5.80;;;1.70;99.90;;;;;;5030825;28;20122;-57
2022/01/22 13:08:06;;;;;;;7.22;6.18;;;1.80;99.90;;;;;;5032013;28;20025;-56
2022/01/22 13:10:43;;;;;;;9.60;6.45;;;1.80;99.90;;;;;;5033091;28;20041;-55
2022/01/22 13:13:14;;;;;;;8.15;7.15;;;1.80;99.90;;;;;;5042851;28;20025;-56
2022/01/22 13:15:40;;;;;;;6.22;5.60;;;1.80;99.90;;;;;;5031634;28;20052;-54
2022/01/22 13:18:06;;;;;;;6.28;5.60;;;1.90;99.90;;;;;;5046819;28;20119;-54
2022/01/22 13:20:34;;;;;;;5.75;5.25;;;1.90;99.90;;;;;;5019471;28;20433;-53
2022/01/22 13:23:11;;;;;;;6.85;6.18;;;1.90;99.90;;;;;;5034860;28;20381;-55
2022/01/22 13:25:38;;;;;;;5.60;5.10;;;1.90;99.90;;;;;;5031668;28;20037;-54
2022/01/22 13:28:10;;;;;;;5.78;5.28;;;1.80;99.90;;;;;;5031972;28;20029;-56
2022/01/22 13:30:43;;;;;;;31.27;13.57;;;1.80;99.90;;;;;;5030542;28;20030;-56
2022/01/22 13:33:17;;;;;;;25.23;13.50;;;1.80;99.90;;;;;;5035456;28;20063;-55
2022/01/22 13:36:33;;;;;;;;;;;1.80;99.90;;;;;;5051549;28;20049;-55
2022/01/22 13:49:41;;;;;;;5.55;5.15;;;1.80;99.90;;;;;;5027420;28;20079;-57
2022/01/22 13:52:11;;;;;;;5.03;4.32;;;1.80;99.90;;;;;;5030214;28;20045;-55
2022/01/22 13:54:39;;;;;;;6.53;5.90;;;1.70;99.90;;;;;;5029758;28;20025;-54
2022/01/22 13:57:11;;;;;;;6.32;5.82;;;1.70;99.90;;;;;;5031407;28;20031;-55
2022/01/22 13:59:45;;;;;;;6.28;5.78;;;1.70;99.90;;;;;;5031819;28;20450;-56
2022/01/22 14:04:49;;;;;;;6.43;5.32;;;1.60;99.90;;;;;;5031282;28;20036;-54
2022/01/22 14:07:31;;;;;;;5.57;5.07;;;1.60;99.90;;;;;;5029745;28;20022;-54
2022/01/22 14:09:58;;;;;;;6.13;5.63;;;1.70;99.90;;;;;;5031053;28;20013;-55
2022/01/22 14:12:33;;;;;;;7.05;6.38;;;1.60;99.90;;;;;;5019844;28;20493;-56
2022/01/22 14:15:12;;;;;;;5.50;5.00;;;1.60;99.90;;;;;;5011496;28;20061;-53
2022/01/22 14:21:02;;;;;;;6.25;5.65;;;1.60;99.90;;;;;;5011636;28;20045;-52
2022/01/22 14:23:33;;;;;;;6.13;5.40;;;1.50;99.90;;;;;;5011733;28;20049;-57
2022/01/22 14:26:11;;;;;;;6.53;4.72;;;1.60;99.90;;;;;;5013405;28;20044;-55
2022/01/22 14:28:45;;;;;;;5.82;5.32;;;1.60;99.90;;;;;;5030007;28;20029;-56
2022/01/22 14:31:19;;;;;;;;;;;1.60;99.90;;;;;;5031690;28;20026;-55
2022/01/22 14:33:45;;;;;;;7.97;5.80;;;1.60;99.90;;;;;;5031261;28;20328;-53
2022/01/22 14:36:19;;;;;;;6.50;5.68;;;1.60;99.90;;;;;;5031423;28;20104;-55
2022/01/22 14:38:52;;;;;;;6.60;5.93;;;1.60;99.90;;;;;;5013384;28;20049;-54
2022/01/22 14:44:28;;;;;;;7.22;5.65;;;1.60;99.90;;;;;;5011450;28;20116;-55
2022/01/22 14:47:02;;;;;;;6.93;6.32;;;1.60;99.90;;;;;;5011360;28;20069;-55
2022/01/22 14:49:40;;;;;;;6.57;5.22;;;1.60;99.90;;;;;;5011466;28;20022;-56
2022/01/22 14:52:07;;;;;;;6.32;5.72;;;1.70;99.90;;;;;;5011416;28;20022;-55
2022/01/22 14:54:36;;;;;;;5.78;5.28;;;1.50;99.90;;;;;;5010132;28;20125;-56
2022/01/22 14:57:05;;;;;;;5.38;4.93;;;1.50;99.90;;;;;;5009998;28;20034;-55
2022/01/22 14:59:31;;;;;;;5.18;4.68;;;1.60;99.90;;;;;;5016303;28;20025;-56
2022/01/22 15:01:57;;;;;;;5.70;5.20;;;1.60;99.90;;;;;;5033381;28;20041;-55